Time;durP1;ratioP1;P1;durP2;ratioP2;P2;SDS_P1;SDS_P2;PMS_P1;PMS_P2;Temp;Humidity;BMP_temperature;BMP_pressure;BME280_temperature;BME280_humidity;BME280_pressure;Samples;Min_cycle;Max_cycle;Signal;HPM_P1;HPM_P2
2024/04/11 00:01:16;;;;;;;2.58;1.30;;;;;;;;;;5305127;26;20002;-63
2024/04/11 00:03:42;;;;;;;2.03;1.23;;;;;;;;;;5305362;26;20333;-63
2024/04/11 00:06:07;;;;;;;3.53;1.20;;;;;;;;;;5306088;26;19997;-63
2024/04/11 00:08:32;;;;;;;3.40;1.10;;;;;;;;;;5330721;26;20002;-64
2024/04/11 00:10:58;;;;;;;3.00;1.10;;;;;;;;;;5300628;26;20052;-63
2024/04/11 00:13:23;;;;;;;2.90;1.38;;;;;;;;;;5305159;26;20002;-63
2024/04/11 00:15:53;;;;;;;2.60;1.30;;;;;;;;;;5303811;26;20016;-64
2024/04/11 00:18:20;;;;;;;2.40;1.15;;;;;;;;;;5317766;26;20007;-64
2024/04/11 00:20:46;;;;;;;3.40;1.33;;;;;;;;;;5317672;26;20005;-63
2024/04/11 00:23:11;;;;;;;2.67;1.20;;;;;;;;;;5304725;26;20332;-63
2024/04/11 00:25:36;;;;;;;3.03;1.38;;;;;;;;;;5304422;26;20001;-63
2024/04/11 00:28:02;;;;;;;3.08;1.65;;;;;;;;;;5305760;26;20079;-64
2024/04/11 00:30:27;;;;;;;3.17;1.10;;;;;;;;;;5319450;26;20016;-64
2024/04/11 00:32:53;;;;;;;1.65;1.13;;;;;;;;;;5304492;26;20079;-64
2024/04/11 00:35:19;;;;;;;2.55;1.23;;;;;;;;;;5300503;26;20685;-64
2024/04/11 00:37:44;;;;;;;2.03;1.30;;;;;;;;;;5310351;26;20095;-64
2024/04/11 00:40:09;;;;;;;3.08;1.40;;;;;;;;;;5295895;26;20017;-63
2024/04/11 00:42:35;;;;;;;2.30;1.20;;;;;;;;;;5302743;27;20021;-63
2024/04/11 00:45:01;;;;;;;2.83;1.20;;;;;;;;;;5303739;26;20068;-63
2024/04/11 00:47:26;;;;;;;1.65;1.10;;;;;;;;;;5308681;26;20006;-63
2024/04/11 00:49:52;;;;;;;2.90;1.25;;;;;;;;;;5303115;27;20001;-63
2024/04/11 00:52:17;;;;;;;2.10;1.33;;;;;;;;;;5303719;26;20001;-63
2024/04/11 00:54:44;;;;;;;3.20;1.10;;;;;;;;;;5302134;26;20001;-63
2024/04/11 00:57:10;;;;;;;2.55;1.13;;;;;;;;;;5304566;26;20456;-63
2024/04/11 00:59:38;;;;;;;5.03;1.50;;;;;;;;;;5307747;26;20005;-64
2024/04/11 01:02:04;;;;;;;1.90;1.15;;;;;;;;;;5303476;27;20045;-63
2024/04/11 01:04:33;;;;;;;2.65;1.20;;;;;;;;;;5309349;26;20397;-63
2024/04/11 01:07:08;;;;;;;3.20;1.25;;;;;;;;;;5310608;26;20001;-63
2024/04/11 01:09:34;;;;;;;3.95;1.23;;;;;;;;;;5306168;27;19997;-64
2024/04/11 01:12:00;;;;;;;2.88;1.33;;;;;;;;;;5306808;26;20337;-63
2024/04/11 01:14:26;;;;;;;2.85;1.25;;;;;;;;;;5308889;26;20037;-64
2024/04/11 01:16:51;;;;;;;3.47;1.33;;;;;;;;;;5312735;26;20019;-64
2024/04/11 01:19:17;;;;;;;2.63;1.50;;;;;;;;;;5329394;26;20012;-62
2024/04/11 01:21:44;;;;;;;2.83;1.27;;;;;;;;;;5318848;26;20020;-63
2024/04/11 01:24:09;;;;;;;4.18;1.45;;;;;;;;;;5307212;26;20013;-63
2024/04/11 01:26:35;;;;;;;2.78;1.42;;;;;;;;;;5306674;26;20057;-63
2024/04/11 01:29:01;;;;;;;3.28;1.20;;;;;;;;;;5308024;26;20086;-64
2024/04/11 01:31:28;;;;;;;2.50;1.30;;;;;;;;;;5309911;26;20001;-63
2024/04/11 01:33:54;;;;;;;2.92;1.40;;;;;;;;;;5307332;26;20499;-63
2024/04/11 01:36:19;;;;;;;2.92;1.48;;;;;;;;;;5306699;26;20471;-62
2024/04/11 01:38:46;;;;;;;3.28;1.23;;;;;;;;;;5306962;26;20014;-63
2024/04/11 01:41:11;;;;;;;5.35;1.85;;;;;;;;;;5308684;26;20030;-63
2024/04/11 01:43:38;;;;;;;3.08;1.50;;;;;;;;;;5306163;26;20337;-63
2024/04/11 01:46:04;;;;;;;3.70;1.60;;;;;;;;;;5306335;26;20574;-63
2024/04/11 01:48:29;;;;;;;4.65;2.00;;;;;;;;;;5306655;26;20002;-63
2024/04/11 01:50:54;;;;;;;3.60;1.75;;;;;;;;;;5302226;26;20085;-63
2024/04/11 01:53:20;;;;;;;3.60;1.70;;;;;;;;;;5308369;26;20014;-63
2024/04/11 01:55:47;;;;;;;4.20;1.83;;;;;;;;;;5308041;26;20012;-63
2024/04/11 01:58:16;;;;;;;2.67;1.48;;;;;;;;;;5312335;26;20009;-64
2024/04/11 02:00:43;;;;;;;3.28;1.58;;;;;;;;;;5308596;26;20002;-63
2024/04/11 02:03:08;;;;;;;4.40;2.05;;;;;;;;;;5289913;26;20116;-63
2024/04/11 02:05:34;;;;;;;3.65;1.58;;;;;;;;;;5294024;26;20098;-64
2024/04/11 02:08:01;;;;;;;5.30;1.60;;;;;;;;;;5297417;26;20001;-63
2024/04/11 02:10:26;;;;;;;2.72;1.70;;;;;;;;;;5305966;26;20029;-64
2024/04/11 02:12:52;;;;;;;3.05;1.73;;;;;;;;;;5304663;26;20100;-63
2024/04/11 02:15:17;;;;;;;3.88;1.42;;;;;;;;;;5306487;26;20016;-64
2024/04/11 02:17:42;;;;;;;2.75;1.60;;;;;;;;;;5312767;26;20010;-64
2024/04/11 02:20:10;;;;;;;3.85;1.60;;;;;;;;;;5307703;26;20002;-63
2024/04/11 02:22:36;;;;;;;5.70;2.05;;;;;;;;;;5306350;26;20001;-63
2024/04/11 02:25:01;;;;;;;2.28;1.50;;;;;;;;;;5298969;26;20006;-63
2024/04/11 02:27:29;;;;;;;3.97;1.60;;;;;;;;;;5280057;27;20008;-66
2024/04/11 02:29:55;;;;;;;2.13;1.50;;;;;;;;;;5306128;26;19997;-66
2024/04/11 02:32:21;;;;;;;3.50;1.67;;;;;;;;;;5304268;26;20012;-65
2024/04/11 02:34:47;;;;;;;3.45;1.50;;;;;;;;;;5305720;26;19998;-68
2024/04/11 02:37:14;;;;;;;4.60;1.70;;;;;;;;;;5310781;26;20050;-66
2024/04/11 02:39:39;;;;;;;5.03;1.85;;;;;;;;;;5315620;26;20009;-67
2024/04/11 02:42:05;;;;;;;2.13;1.40;;;;;;;;;;5310560;26;20404;-66
2024/04/11 02:44:31;;;;;;;2.97;1.70;;;;;;;;;;5309468;26;20020;-65
2024/04/11 02:47:01;;;;;;;4.15;1.90;;;;;;;;;;5305289;26;20453;-67
2024/04/11 02:49:26;;;;;;;4.65;1.92;;;;;;;;;;5310912;26;20009;-67
2024/04/11 02:51:51;;;;;;;3.47;1.92;;;;;;;;;;5298982;26;20089;-66
2024/04/11 02:54:17;;;;;;;2.67;1.85;;;;;;;;;;5304247;26;19998;-67
2024/04/11 02:56:42;;;;;;;3.90;2.22;;;;;;;;;;5305850;26;20009;-67
2024/04/11 02:59:11;;;;;;;4.38;1.88;;;;;;;;;;5287580;26;20002;-67
2024/04/11 03:01:36;;;;;;;3.10;1.85;;;;;;;;;;5311145;26;20016;-67
2024/04/11 03:04:02;;;;;;;3.20;1.77;;;;;;;;;;5302559;26;20009;-67
2024/04/11 03:06:27;;;;;;;3.30;1.75;;;;;;;;;;5310816;26;19997;-65
2024/04/11 03:08:56;;;;;;;5.47;1.88;;;;;;;;;;5316556;26;20075;-66
2024/04/11 03:11:23;;;;;;;3.90;2.10;;;;;;;;;;5307070;26;20440;-66
2024/04/11 03:13:49;;;;;;;3.33;1.90;;;;;;;;;;5303987;26;20001;-66
2024/04/11 03:16:15;;;;;;;3.72;2.33;;;;;;;;;;5304939;26;20436;-66
2024/04/11 03:18:41;;;;;;;4.70;2.08;;;;;;;;;;5292974;26;20002;-66
2024/04/11 03:21:06;;;;;;;3.45;1.85;;;;;;;;;;5301240;26;20439;-65
2024/04/11 03:23:31;;;;;;;4.63;1.70;;;;;;;;;;5304281;26;20002;-66
2024/04/11 03:25:58;;;;;;;5.97;2.55;;;;;;;;;;5305278;26;20013;-67
2024/04/11 03:28:23;;;;;;;5.15;2.20;;;;;;;;;;5293963;26;20033;-66
2024/04/11 03:31:00;;;;;;;4.13;2.65;;;;;;;;;;5311157;26;20016;-66
2024/04/11 03:33:26;;;;;;;4.05;2.58;;;;;;;;;;5304655;26;20076;-67
2024/04/11 03:35:57;;;;;;;3.83;1.90;;;;;;;;;;5312711;26;20017;-67
2024/04/11 03:38:26;;;;;;;3.17;1.95;;;;;;;;;;5299798;26;20013;-67
2024/04/11 03:41:09;;;;;;;4.68;2.50;;;;;;;;;;5301691;26;20011;-67
2024/04/11 03:43:35;;;;;;;3.83;2.13;;;;;;;;;;5304643;26;20001;-66
2024/04/11 03:46:09;;;;;;;4.60;2.30;;;;;;;;;;5304771;26;20013;-67
2024/04/11 03:48:35;;;;;;;4.82;2.50;;;;;;;;;;5316874;26;20085;-65
2024/04/11 03:51:13;;;;;;;3.83;2.13;;;;;;;;;;5306153;26;20006;-65
2024/04/11 03:53:41;;;;;;;4.20;2.20;;;;;;;;;;5303504;26;20030;-65
2024/04/11 03:56:07;;;;;;;3.58;1.85;;;;;;;;;;5300329;26;20041;-65
2024/04/11 03:58:36;;;;;;;4.18;2.13;;;;;;;;;;5291341;26;20002;-66
2024/04/11 04:01:02;;;;;;;5.75;2.20;;;;;;;;;;5306505;26;19997;-67
2024/04/11 04:03:27;;;;;;;3.80;1.95;;;;;;;;;;5305168;26;20461;-66
2024/04/11 04:05:53;;;;;;;3.90;2.13;;;;;;;;;;5318145;26;20769;-66
2024/04/11 04:08:18;;;;;;;4.68;2.22;;;;;;;;;;5303424;26;20403;-66
2024/04/11 04:10:43;;;;;;;5.75;1.83;;;;;;;;;;5304633;26;20034;-67
2024/04/11 04:13:10;;;;;;;3.42;2.30;;;;;;;;;;5300384;26;19998;-67
2024/04/11 04:15:36;;;;;;;3.15;2.05;;;;;;;;;;5316951;26;20012;-67
2024/04/11 04:18:03;;;;;;;3.35;1.95;;;;;;;;;;5303189;26;20008;-65
2024/04/11 04:20:28;;;;;;;3.80;2.20;;;;;;;;;;5308965;26;20349;-66
2024/04/11 04:22:53;;;;;;;4.53;2.28;;;;;;;;;;5306676;26;20053;-65
2024/04/11 04:25:19;;;;;;;3.40;1.90;;;;;;;;;;5293374;26;20005;-65
2024/04/11 04:27:44;;;;;;;4.22;1.77;;;;;;;;;;5299428;26;20033;-67
2024/04/11 04:30:11;;;;;;;2.88;1.80;;;;;;;;;;5297284;26;20006;-67
2024/04/11 04:32:37;;;;;;;3.22;2.05;;;;;;;;;;5308715;26;20011;-68
2024/04/11 04:35:06;;;;;;;3.80;2.00;;;;;;;;;;5303103;26;20006;-66
2024/04/11 04:37:34;;;;;;;2.92;1.80;;;;;;;;;;5292221;26;20016;-65
2024/04/11 04:39:59;;;;;;;4.35;1.98;;;;;;;;;;5300677;26;20033;-67
2024/04/11 04:42:25;;;;;;;4.85;2.20;;;;;;;;;;5303324;26;20463;-67
2024/04/11 04:44:54;;;;;;;4.45;2.05;;;;;;;;;;5303148;26;20001;-68
2024/04/11 04:47:28;;;;;;;5.65;2.28;;;;;;;;;;5296621;26;20456;-68
2024/04/11 04:49:55;;;;;;;3.13;2.05;;;;;;;;;;5284793;26;20071;-67
2024/04/11 04:52:24;;;;;;;3.92;2.00;;;;;;;;;;5300746;26;20072;-65
2024/04/11 04:54:50;;;;;;;3.33;1.98;;;;;;;;;;5302822;26;20711;-65
2024/04/11 04:57:16;;;;;;;4.40;2.00;;;;;;;;;;5302573;26;20024;-64
2024/04/11 04:59:41;;;;;;;6.35;2.13;;;;;;;;;;5296661;26;20444;-66
2024/04/11 05:02:09;;;;;;;4.13;2.15;;;;;;;;;;5290720;26;20020;-67
2024/04/11 05:04:34;;;;;;;5.57;2.50;;;;;;;;;;5302436;26;20476;-67
2024/04/11 05:07:00;;;;;;;3.88;1.90;;;;;;;;;;5299277;26;20002;-65
2024/04/11 05:09:26;;;;;;;5.35;2.13;;;;;;;;;;5307905;26;20017;-65
2024/04/11 05:11:51;;;;;;;4.20;1.98;;;;;;;;;;5303162;26;20002;-66
2024/04/11 05:14:16;;;;;;;4.50;2.47;;;;;;;;;;5303335;26;20005;-66
2024/04/11 05:16:43;;;;;;;5.05;2.58;;;;;;;;;;5311616;26;20292;-64
2024/04/11 05:19:11;;;;;;;5.40;2.10;;;;;;;;;;5298297;26;20002;-66
2024/04/11 05:21:39;;;;;;;4.72;2.33;;;;;;;;;;5307419;26;20017;-67
2024/04/11 05:24:04;;;;;;;6.03;2.10;;;;;;;;;;5298795;26;20328;-68
2024/04/11 05:26:31;;;;;;;5.00;2.28;;;;;;;;;;5307233;26;19997;-67
2024/04/11 05:28:57;;;;;;;5.45;2.20;;;;;;;;;;5301713;26;20009;-69
2024/04/11 05:31:26;;;;;;;5.28;2.40;;;;;;;;;;5294413;26;20002;-66
2024/04/11 05:33:53;;;;;;;6.45;2.58;;;;;;;;;;5302176;26;20496;-68
2024/04/11 05:36:20;;;;;;;7.50;2.40;;;;;;;;;;5310187;26;20320;-68
2024/04/11 05:38:46;;;;;;;6.10;2.60;;;;;;;;;;5301774;26;20065;-67
2024/04/11 05:41:13;;;;;;;4.70;2.55;;;;;;;;;;5310638;26;20036;-66
2024/04/11 05:43:39;;;;;;;5.28;2.65;;;;;;;;;;5297995;26;20006;-67
2024/04/11 05:46:05;;;;;;;6.80;2.47;;;;;;;;;;5295734;26;20362;-67
2024/04/11 05:48:31;;;;;;;5.43;2.65;;;;;;;;;;5304914;26;20005;-67
2024/04/11 05:50:58;;;;;;;8.32;2.65;;;;;;;;;;5304443;26;20001;-68
2024/04/11 05:53:23;;;;;;;5.38;2.55;;;;;;;;;;5304005;26;20017;-65
2024/04/11 05:55:49;;;;;;;5.22;2.92;;;;;;;;;;5309742;26;20012;-66
2024/04/11 05:58:14;;;;;;;6.28;2.83;;;;;;;;;;5300328;26;20344;-68
2024/04/11 06:00:44;;;;;;;5.28;2.63;;;;;;;;;;5302300;26;20364;-67
2024/04/11 06:03:11;;;;;;;;;;;;;;;;;;5303921;26;20020;-67
2024/04/11 06:05:39;;;;;;;6.95;2.85;;;;;;;;;;5297562;26;19927;-67
2024/04/11 06:08:07;;;;;;;6.88;2.40;;;;;;;;;;5303851;26;20009;-67
2024/04/11 06:10:32;;;;;;;6.88;3.05;;;;;;;;;;5310924;26;20400;-68
2024/04/11 06:12:58;;;;;;;6.10;2.90;;;;;;;;;;5315744;26;20015;-67
2024/04/11 06:15:25;;;;;;;5.80;2.80;;;;;;;;;;5308597;26;20431;-66
2024/04/11 06:17:51;;;;;;;4.97;2.42;;;;;;;;;;5306127;26;20017;-66
2024/04/11 06:20:21;;;;;;;6.18;2.53;;;;;;;;;;5300274;26;20033;-67
2024/04/11 06:22:52;;;;;;;4.90;2.90;;;;;;;;;;5306762;26;20010;-67
2024/04/11 06:25:19;;;;;;;6.13;2.92;;;;;;;;;;5289467;26;20017;-64
2024/04/11 06:27:46;;;;;;;6.00;2.63;;;;;;;;;;5294357;26;19998;-66
2024/04/11 06:30:14;;;;;;;5.68;2.38;;;;;;;;;;5301169;26;20017;-64
2024/04/11 06:32:42;;;;;;;5.97;3.00;;;;;;;;;;5289521;26;19998;-62
2024/04/11 06:35:08;;;;;;;7.07;3.03;;;;;;;;;;5297932;26;20028;-61
2024/04/11 06:37:34;;;;;;;3.85;2.47;;;;;;;;;;5304878;26;20005;-62
2024/04/11 06:39:59;;;;;;;6.82;2.78;;;;;;;;;;5303147;26;21216;-62
2024/04/11 06:42:25;;;;;;;6.40;2.90;;;;;;;;;;5304987;26;20013;-64
2024/04/11 06:44:50;;;;;;;5.68;2.40;;;;;;;;;;5303073;26;20005;-63
2024/04/11 06:47:18;;;;;;;5.47;2.47;;;;;;;;;;5303701;26;20021;-64
2024/04/11 06:49:44;;;;;;;5.68;2.50;;;;;;;;;;5294508;26;20095;-61
2024/04/11 06:52:12;;;;;;;7.25;2.88;;;;;;;;;;5300921;26;20010;-61
2024/04/11 06:54:40;;;;;;;5.70;2.42;;;;;;;;;;5304892;26;20913;-61
2024/04/11 06:57:06;;;;;;;4.53;2.90;;;;;;;;;;5302808;26;20353;-60
2024/04/11 06:59:31;;;;;;;6.30;3.10;;;;;;;;;;5299489;26;20014;-61
2024/04/11 07:01:58;;;;;;;5.60;2.78;;;;;;;;;;5301702;26;20084;-61
2024/04/11 07:04:23;;;;;;;5.53;2.65;;;;;;;;;;5300783;26;20021;-62
2024/04/11 07:06:49;;;;;;;6.50;2.50;;;;;;;;;;5294700;26;20106;-61
2024/04/11 07:09:14;;;;;;;6.25;2.55;;;;;;;;;;5298299;26;20335;-62
2024/04/11 07:11:42;;;;;;;4.55;2.47;;;;;;;;;;5290122;26;20001;-62
2024/04/11 07:14:20;;;;;;;5.03;2.67;;;;;;;;;;5299231;26;20084;-60
2024/04/11 07:16:45;;;;;;;5.40;2.70;;;;;;;;;;5299733;26;20075;-61
2024/04/11 07:19:12;;;;;;;5.55;2.50;;;;;;;;;;5282526;26;20014;-62
2024/04/11 07:21:38;;;;;;;5.28;2.50;;;;;;;;;;5292536;26;20040;-63
2024/04/11 07:24:06;;;;;;;5.30;2.50;;;;;;;;;;5299359;26;20005;-63
2024/04/11 07:26:32;;;;;;;6.90;2.70;;;;;;;;;;5304631;26;20507;-62
2024/04/11 07:29:03;;;;;;;4.50;2.30;;;;;;;;;;5292843;26;20033;-63
2024/04/11 07:31:30;;;;;;;5.72;2.97;;;;;;;;;;5287399;26;20091;-61
2024/04/11 07:33:55;;;;;;;3.47;2.53;;;;;;;;;;5296523;26;20048;-66
2024/04/11 07:36:22;;;;;;;4.95;2.63;;;;;;;;;;5301571;27;20006;-63
2024/04/11 07:38:48;;;;;;;5.43;2.60;;;;;;;;;;5301880;26;20416;-61
2024/04/11 07:41:16;;;;;;;5.25;2.33;;;;;;;;;;5304009;26;20005;-65
2024/04/11 07:43:45;;;;;;;3.65;2.25;;;;;;;;;;5290892;26;20012;-65
2024/04/11 07:46:13;;;;;;;5.35;2.50;;;;;;;;;;5295319;26;20326;-63
2024/04/11 07:48:41;;;;;;;3.80;2.28;;;;;;;;;;5290259;26;20174;-63
2024/04/11 07:51:09;;;;;;;6.35;2.90;;;;;;;;;;5296862;26;20319;-63
2024/04/11 07:53:35;;;;;;;3.70;2.30;;;;;;;;;;5292973;26;20095;-63
2024/04/11 07:56:01;;;;;;;6.18;2.58;;;;;;;;;;5301964;26;20124;-63
2024/04/11 07:58:26;;;;;;;4.88;2.15;;;;;;;;;;5294294;26;20006;-62
2024/04/11 08:00:54;;;;;;;3.22;2.13;;;;;;;;;;5298668;26;20009;-61
2024/04/11 08:03:20;;;;;;;4.05;2.08;;;;;;;;;;5287696;26;20012;-64
2024/04/11 08:05:46;;;;;;;4.03;2.08;;;;;;;;;;5303385;26;20005;-62
2024/04/11 08:08:20;;;;;;;5.57;2.30;;;;;;;;;;5298891;26;19998;-62
2024/04/11 08:10:45;;;;;;;4.18;2.08;;;;;;;;;;5283766;26;20005;-64
2024/04/11 08:13:11;;;;;;;4.85;1.90;;;;;;;;;;5294390;26;20020;-66
2024/04/11 08:15:36;;;;;;;4.43;1.90;;;;;;;;;;5302446;26;20024;-68
2024/04/11 08:18:04;;;;;;;5.22;1.95;;;;;;;;;;5296264;26;20001;-66
2024/04/11 08:20:30;;;;;;;4.68;2.33;;;;;;;;;;5289198;26;20002;-66
2024/04/11 08:22:55;;;;;;;5.32;2.00;;;;;;;;;;5300830;26;20012;-68
2024/04/11 08:25:20;;;;;;;5.50;1.90;;;;;;;;;;5288237;26;20083;-63
2024/04/11 08:27:48;;;;;;;4.90;2.13;;;;;;;;;;5276301;26;20002;-63
2024/04/11 08:30:15;;;;;;;4.53;2.20;;;;;;;;;;5281250;26;20408;-66
2024/04/11 08:32:45;;;;;;;3.50;1.98;;;;;;;;;;5288362;26;20014;-63
2024/04/11 08:35:17;;;;;;;4.85;1.88;;;;;;;;;;5288888;26;20017;-64
2024/04/11 08:37:43;;;;;;;2.72;1.70;;;;;;;;;;5303641;26;25674;-65
2024/04/11 08:40:10;;;;;;;3.13;1.70;;;;;;;;;;5280134;26;19998;-63
2024/04/11 08:42:38;;;;;;;5.22;1.80;;;;;;;;;;5298171;26;20042;-62
2024/04/11 08:45:06;;;;;;;3.15;1.92;;;;;;;;;;5292550;26;20272;-62
2024/04/11 08:47:32;;;;;;;3.50;1.73;;;;;;;;;;5302249;26;20002;-69
2024/04/11 08:49:58;;;;;;;4.13;1.73;;;;;;;;;;5303488;26;20034;-65
2024/04/11 08:52:26;;;;;;;2.97;1.75;;;;;;;;;;5299725;26;20001;-69
2024/04/11 08:54:52;;;;;;;3.88;1.83;;;;;;;;;;5298224;26;20118;-67
2024/04/11 08:57:18;;;;;;;2.22;1.63;;;;;;;;;;5289896;26;20498;-61
2024/04/11 08:59:47;;;;;;;4.30;1.98;;;;;;;;;;5277092;26;20002;-63
2024/04/11 09:02:12;;;;;;;3.13;1.80;;;;;;;;;;5306771;26;20010;-57
2024/04/11 09:04:37;;;;;;;3.75;1.88;;;;;;;;;;5328522;21;20072;-87
2024/04/11 09:07:04;;;;;;;3.22;1.73;;;;;;;;;;5306073;26;20437;-87
2024/04/11 09:09:30;;;;;;;4.78;1.70;;;;;;;;;;5283820;27;19997;-78
2024/04/11 09:11:56;;;;;;;4.70;2.22;;;;;;;;;;5309765;21;20006;-59
2024/04/11 09:14:22;;;;;;;5.72;1.88;;;;;;;;;;5294721;26;20012;-59
2024/04/11 09:17:00;;;;;;;3.17;1.77;;;;;;;;;;5290944;26;19997;-60
2024/04/11 09:19:26;;;;;;;4.95;1.80;;;;;;;;;;5277632;26;20493;-60
2024/04/11 09:21:53;;;;;;;4.38;1.83;;;;;;;;;;5298685;26;19997;-59
2024/04/11 09:24:18;;;;;;;5.35;1.70;;;;;;;;;;5280027;26;20005;-59
2024/04/11 09:26:43;;;;;;;3.88;1.77;;;;;;;;;;5285962;26;20138;-60
2024/04/11 09:29:11;;;;;;;3.80;1.77;;;;;;;;;;5318039;26;20001;-59
2024/04/11 09:31:37;;;;;;;4.03;1.77;;;;;;;;;;5301582;26;20012;-59
2024/04/11 09:34:03;;;;;;;3.50;1.70;;;;;;;;;;5299797;26;20070;-61
2024/04/11 09:36:28;;;;;;;2.45;1.45;;;;;;;;;;5261349;26;20026;-61
2024/04/11 09:39:04;;;;;;;3.42;1.50;;;;;;;;;;5289085;26;20092;-59
2024/04/11 09:41:31;;;;;;;2.40;1.60;;;;;;;;;;5272345;26;20399;-60
2024/04/11 09:43:56;;;;;;;3.40;1.40;;;;;;;;;;5276005;27;20073;-61
2024/04/11 09:46:23;;;;;;;2.55;1.60;;;;;;;;;;5315251;26;20517;-60
2024/04/11 09:48:48;;;;;;;3.53;1.55;;;;;;;;;;5246191;27;20615;-60
2024/04/11 09:51:15;;;;;;;4.97;1.70;;;;;;;;;;5298017;26;20003;-59
2024/04/11 09:53:41;;;;;;;3.85;1.60;;;;;;;;;;5298029;26;20335;-59
2024/04/11 09:56:08;;;;;;;3.10;1.50;;;;;;;;;;5274090;26;20012;-60
2024/04/11 09:58:38;;;;;;;4.25;1.50;;;;;;;;;;5277049;26;20002;-59
2024/04/11 10:01:29;;;;;;;4.10;1.80;;;;;;;;;;5275324;26;20042;-58
2024/04/11 10:04:04;;;;;;;4.20;1.38;;;;;;;;;;5263921;26;20006;-59
2024/04/11 10:06:29;;;;;;;4.90;1.80;;;;;;;;;;5295526;26;20005;-59
2024/04/11 10:09:11;;;;;;;2.67;1.48;;;;;;;;;;5285486;26;20057;-59
2024/04/11 10:11:37;;;;;;;2.00;1.33;;;;;;;;;;5296018;26;20017;-59
2024/04/11 10:14:05;;;;;;;4.63;1.52;;;;;;;;;;5295570;26;19994;-59
2024/04/11 10:16:33;;;;;;;4.20;1.60;;;;;;;;;;5285558;26;20002;-59
2024/04/11 10:19:07;;;;;;;2.83;1.45;;;;;;;;;;5280592;26;19998;-58
2024/04/11 10:21:32;;;;;;;4.35;1.30;;;;;;;;;;5276487;26;20017;-60
2024/04/11 10:24:03;;;;;;;4.40;1.42;;;;;;;;;;5280714;26;20018;-59
2024/04/11 10:26:34;;;;;;;3.55;1.42;;;;;;;;;;5303095;26;20022;-59
2024/04/11 10:29:18;;;;;;;3.63;1.80;;;;;;;;;;5284107;26;20018;-58
2024/04/11 10:31:44;;;;;;;2.75;1.25;;;;;;;;;;5287720;26;20006;-58
2024/04/11 10:34:13;;;;;;;6.00;1.35;;;;;;;;;;5317719;26;20439;-59
2024/04/11 10:36:43;;;;;;;4.70;1.67;;;;;;;;;;5288669;26;20028;-60
2024/04/11 10:39:10;;;;;;;2.60;1.10;;;;;;;;;;5280910;26;20003;-59
2024/04/11 10:41:37;;;;;;;2.80;1.30;;;;;;;;;;5273999;27;19997;-59
2024/04/11 10:44:03;;;;;;;3.60;1.63;;;;;;;;;;5321870;26;20078;-59
2024/04/11 10:46:31;;;;;;;2.55;1.20;;;;;;;;;;5305013;26;20447;-58
2024/04/11 10:49:08;;;;;;;3.83;1.30;;;;;;;;;;5290319;26;20006;-60
2024/04/11 10:51:37;;;;;;;3.17;1.33;;;;;;;;;;5293562;26;20456;-59
2024/04/11 10:54:12;;;;;;;2.30;1.08;;;;;;;;;;5310379;26;20450;-60
2024/04/11 10:56:40;;;;;;;2.95;1.17;;;;;;;;;;5305323;26;20113;-59
2024/04/11 10:59:50;;;;;;;1.77;1.10;;;;;;;;;;5303679;26;20001;-60
2024/04/11 11:02:08;;;;;;;3.25;1.30;;;;;;;;;;5282621;26;20469;-59
2024/04/11 11:04:34;;;;;;;5.47;1.00;;;;;;;;;;5272218;27;20473;-59
2024/04/11 11:06:59;;;;;;;3.35;1.00;;;;;;;;;;5249298;27;20444;-64
2024/04/11 11:09:30;;;;;;;2.85;1.00;;;;;;;;;;5301411;26;20001;-63
2024/04/11 11:11:56;;;;;;;2.38;1.40;;;;;;;;;;5280436;26;20487;-64
2024/04/11 11:14:24;;;;;;;2.40;1.10;;;;;;;;;;5286902;26;20013;-61
2024/04/11 11:16:50;;;;;;;2.80;1.17;;;;;;;;;;5308143;26;20073;-65
2024/04/11 11:19:19;;;;;;;1.95;1.10;;;;;;;;;;5287510;26;20010;-62
2024/04/11 11:21:51;;;;;;;2.13;1.13;;;;;;;;;;5307903;26;20501;-61
2024/04/11 11:24:28;;;;;;;4.75;1.15;;;;;;;;;;5303856;26;20053;-63
2024/04/11 11:26:54;;;;;;;3.80;1.30;;;;;;;;;;5294263;26;20002;-64
2024/04/11 11:29:20;;;;;;;1.75;1.10;;;;;;;;;;5292810;26;20009;-63
2024/04/11 11:31:50;;;;;;;3.95;1.10;;;;;;;;;;5296598;26;20002;-64
2024/04/11 11:34:15;;;;;;;3.67;1.40;;;;;;;;;;5299629;26;20423;-63
2024/04/11 11:36:45;;;;;;;3.92;1.38;;;;;;;;;;5288161;26;20003;-61
2024/04/11 11:39:17;;;;;;;3.73;1.37;;;;;;;;;;5285497;26;20002;-60
2024/04/11 11:41:48;;;;;;;2.00;1.10;;;;;;;;;;5284229;26;20787;-63
2024/04/11 11:44:21;;;;;;;8.35;1.50;;;;;;;;;;5292607;26;20005;-60
2024/04/11 11:46:49;;;;;;;2.45;1.20;;;;;;;;;;5302202;26;20006;-60
2024/04/11 11:49:17;;;;;;;2.03;1.00;;;;;;;;;;5286798;26;20006;-62
2024/04/11 11:51:44;;;;;;;3.05;1.23;;;;;;;;;;5291797;26;20006;-67
2024/04/11 11:54:12;;;;;;;2.40;1.15;;;;;;;;;;5271749;26;20025;-65
2024/04/11 11:56:42;;;;;;;3.05;1.30;;;;;;;;;;5286723;27;20332;-69
2024/04/11 11:59:10;;;;;;;5.53;1.25;;;;;;;;;;5260624;26;20077;-59
2024/04/11 12:01:41;;;;;;;2.78;1.40;;;;;;;;;;5299091;26;20336;-60
2024/04/11 12:04:07;;;;;;;2.05;1.10;;;;;;;;;;5264406;27;20004;-58
2024/04/11 12:06:34;;;;;;;2.63;1.48;;;;;;;;;;5295699;26;20001;-59
2024/04/11 12:09:11;;;;;;;3.00;1.48;;;;;;;;;;5288929;26;20009;-64
2024/04/11 12:11:49;;;;;;;4.28;1.15;;;;;;;;;;5295838;26;20021;-62
2024/04/11 12:14:22;;;;;;;1.88;1.27;;;;;;;;;;5296218;26;20363;-60
2024/04/11 12:16:52;;;;;;;2.85;1.40;;;;;;;;;;5278815;26;20011;-60
2024/04/11 12:19:19;;;;;;;2.15;1.13;;;;;;;;;;5285683;26;20001;-60
2024/04/11 12:21:45;;;;;;;4.03;1.27;;;;;;;;;;5283317;27;20445;-59
2024/04/11 12:24:15;;;;;;;2.35;1.27;;;;;;;;;;5283007;26;20329;-61
2024/04/11 12:26:40;;;;;;;2.40;1.50;;;;;;;;;;5294703;26;20027;-60
2024/04/11 12:29:05;;;;;;;4.78;1.50;;;;;;;;;;5296696;26;20460;-60
2024/04/11 12:31:32;;;;;;;2.25;1.30;;;;;;;;;;5288196;27;20022;-62
2024/04/11 12:33:59;;;;;;;4.18;1.40;;;;;;;;;;5305956;26;20446;-61
2024/04/11 12:36:51;;;;;;;5.70;1.50;;;;;;;;;;5278278;26;20097;-61
2024/04/11 12:39:21;;;;;;;2.53;1.60;;;;;;;;;;5285663;26;20046;-65
2024/04/11 12:41:47;;;;;;;2.72;1.40;;;;;;;;;;5302156;27;20002;-63
2024/04/11 12:44:12;;;;;;;2.30;1.48;;;;;;;;;;5256105;27;20002;-60
2024/04/11 12:46:38;;;;;;;2.92;1.50;;;;;;;;;;5290233;26;20013;-60
2024/04/11 12:49:10;;;;;;;2.33;1.30;;;;;;;;;;5290594;26;20433;-58
2024/04/11 12:51:36;;;;;;;2.08;1.25;;;;;;;;;;5286983;27;20014;-58
2024/04/11 12:54:03;;;;;;;2.40;1.42;;;;;;;;;;5217255;27;20038;-60
2024/04/11 12:56:32;;;;;;;3.10;1.30;;;;;;;;;;5273880;27;20308;-60
2024/04/11 12:59:05;;;;;;;4.70;1.60;;;;;;;;;;5291853;26;20010;-62
2024/04/11 13:01:32;;;;;;;4.85;1.70;;;;;;;;;;5270198;27;20007;-63
2024/04/11 13:03:57;;;;;;;2.38;1.30;;;;;;;;;;5278427;27;19998;-61
2024/04/11 13:06:37;;;;;;;2.53;1.50;;;;;;;;;;5294270;27;20028;-62
2024/04/11 13:09:18;;;;;;;3.00;1.50;;;;;;;;;;5280500;26;20003;-60
2024/04/11 13:11:48;;;;;;;3.92;1.65;;;;;;;;;;5274775;27;20010;-62
2024/04/11 13:14:24;;;;;;;3.47;1.70;;;;;;;;;;5267106;27;20078;-57
2024/04/11 13:17:02;;;;;;;3.80;1.48;;;;;;;;;;5290967;27;20020;-60
2024/04/11 13:19:39;;;;;;;3.90;1.70;;;;;;;;;;5285881;26;20020;-61
2024/04/11 13:22:05;;;;;;;3.30;1.33;;;;;;;;;;5277793;27;20125;-60
2024/04/11 13:24:42;;;;;;;3.72;1.50;;;;;;;;;;5279871;26;20012;-57
2024/04/11 13:27:08;;;;;;;2.40;1.27;;;;;;;;;;5287987;26;20009;-61
2024/04/11 13:29:35;;;;;;;2.53;1.27;;;;;;;;;;5296270;26;20002;-61
2024/04/11 13:32:04;;;;;;;2.40;1.35;;;;;;;;;;5282001;26;20042;-61
2024/04/11 13:37:37;;;;;;;2.88;1.27;;;;;;;;;;5182032;27;20007;-60
2024/04/11 13:42:52;;;;;;;2.08;1.50;;;;;;;;;;5288607;26;20020;-58
2024/04/11 13:45:22;;;;;;;4.43;1.50;;;;;;;;;;5296425;26;20418;-57
2024/04/11 13:47:47;;;;;;;;;;;;;;;;;;5288514;26;20017;-59
2024/04/11 13:50:34;;;;;;;2.33;1.30;;;;;;;;;;5291535;26;19927;-58
2024/04/11 13:53:04;;;;;;;1.70;1.20;;;;;;;;;;5301443;26;20299;-60
2024/04/11 13:55:30;;;;;;;2.80;1.48;;;;;;;;;;5282102;27;20136;-59
2024/04/11 13:57:59;;;;;;;2.38;1.50;;;;;;;;;;5293626;26;20030;-59
2024/04/11 14:00:36;;;;;;;2.50;1.20;;;;;;;;;;5286289;26;20013;-59
2024/04/11 14:03:16;;;;;;;4.20;1.50;;;;;;;;;;5291235;26;20244;-58
2024/04/11 14:05:59;;;;;;;3.08;1.52;;;;;;;;;;5291674;26;20053;-61
2024/04/11 14:08:25;;;;;;;5.63;1.40;;;;;;;;;;5298644;26;20103;-58
2024/04/11 14:10:51;;;;;;;2.97;1.50;;;;;;;;;;5276811;27;20016;-59
2024/04/11 14:13:16;;;;;;;3.15;1.38;;;;;;;;;;5283649;26;20001;-59
2024/04/11 14:15:44;;;;;;;2.22;1.42;;;;;;;;;;5290712;26;20092;-59
2024/04/11 14:18:17;;;;;;;4.00;1.60;;;;;;;;;;5305471;26;20444;-57
2024/04/11 14:20:50;;;;;;;3.15;1.38;;;;;;;;;;5297000;26;20014;-62
2024/04/11 14:23:22;;;;;;;4.22;1.50;;;;;;;;;;5295269;26;20013;-63
2024/04/11 14:26:04;;;;;;;3.72;1.50;;;;;;;;;;5291678;26;20456;-62
2024/04/11 14:28:31;;;;;;;3.15;1.50;;;;;;;;;;5306166;26;20006;-60
2024/04/11 14:31:08;;;;;;;3.40;1.55;;;;;;;;;;5293981;26;19997;-61
2024/04/11 14:38:48;;;;;;;3.92;1.48;;;;;;;;;;5280432;26;20005;-65
2024/04/11 14:41:13;;;;;;;2.85;1.70;;;;;;;;;;5287317;26;20010;-61
2024/04/11 14:43:39;;;;;;;2.53;1.30;;;;;;;;;;5312029;26;20324;-61
2024/04/11 14:46:05;;;;;;;3.83;1.73;;;;;;;;;;5297314;26;20016;-62
2024/04/11 14:48:36;;;;;;;5.45;1.60;;;;;;;;;;5307938;26;20002;-68
2024/04/11 14:51:08;;;;;;;2.72;1.60;;;;;;;;;;5326030;26;20013;-61
2024/04/11 14:53:33;;;;;;;2.75;1.50;;;;;;;;;;5306652;26;20020;-62
2024/04/11 14:56:14;;;;;;;3.35;1.40;;;;;;;;;;5299877;26;20001;-61
2024/04/11 14:58:42;;;;;;;2.50;1.70;;;;;;;;;;5300868;26;20457;-62